Terminal Aerodrome Forecast
Issued by NWS Jackson, MS

Home | Current Version | Previous Version | Text Only | Print | Product List | Glossary On
Versions: 1 2 3 4 5 6 7 8 9 10 11 12 13 14 15 16 17 18
000
FTUS44 KJAN 190500
TAFHBG
TAF
KHBG 190530Z 1906/2006 01004KT P6SM SCT150
     FM190900 34002KT 4SM BR SKC
     FM191100 00000KT 1 1/2SM BR SKC
     FM191400 33003KT P6SM SKC
     FM191800 01011KT P6SM SKC=

USA.gov is the U.S. government's official web portal to all federal, state and local government web resources and services.